sensor_id;sensor_type;location;lat;lon;timestamp;pressure;altitude;pressure_sealevel;temperature;humidity
77325;BME280;66387;53.440;10.390;2023-12-04T00:01:33;101246.75;;;-1.88;100.00
77325;BME280;66387;53.440;10.390;2023-12-04T00:03:58;101247.53;;;-1.89;100.00
77325;BME280;66387;53.440;10.390;2023-12-04T00:06:24;101238.25;;;-1.88;100.00
77325;BME280;66387;53.440;10.390;2023-12-04T00:08:49;101229.91;;;-1.86;100.00
77325;BME280;66387;53.440;10.390;2023-12-04T00:11:14;101237.53;;;-1.86;100.00
77325;BME280;66387;53.440;10.390;2023-12-04T00:13:40;101232.28;;;-1.89;100.00
77325;BME280;66387;53.440;10.390;2023-12-04T00:16:05;101223.84;;;-1.88;100.00
77325;BME280;66387;53.440;10.390;2023-12-04T00:18:31;101229.94;;;-1.84;100.00
77325;BME280;66387;53.440;10.390;2023-12-04T00:20:56;101226.38;;;-1.88;100.00
77325;BME280;66387;53.440;10.390;2023-12-04T00:23:21;101225.59;;;-1.87;100.00
77325;BME280;66387;53.440;10.390;2023-12-04T00:25:46;101222.97;;;-1.88;100.00
77325;BME280;66387;53.440;10.390;2023-12-04T00:28:12;101216.06;;;-1.91;100.00
77325;BME280;66387;53.440;10.390;2023-12-04T00:30:37;101215.13;;;-1.93;100.00
77325;BME280;66387;53.440;10.390;2023-12-04T00:33:02;101218.63;;;-1.91;100.00
77325;BME280;66387;53.440;10.390;2023-12-04T00:35:28;101221.16;;;-1.91;100.00
77325;BME280;66387;53.440;10.390;2023-12-04T00:37:53;101222.84;;;-1.91;100.00
77325;BME280;66387;53.440;10.390;2023-12-04T00:40:18;101223.63;;;-1.92;100.00
77325;BME280;66387;53.440;10.390;2023-12-04T00:42:43;101209.25;;;-1.92;100.00
77325;BME280;66387;53.440;10.390;2023-12-04T00:45:09;101211.41;;;-2.00;100.00
77325;BME280;66387;53.440;10.390;2023-12-04T00:47:34;101207.16;;;-2.01;100.00
77325;BME280;66387;53.440;10.390;2023-12-04T00:49:59;101202.13;;;-1.99;100.00
77325;BME280;66387;53.440;10.390;2023-12-04T00:52:25;101197.69;;;-2.03;100.00
77325;BME280;66387;53.440;10.390;2023-12-04T00:54:50;101193.69;;;-1.98;100.00
77325;BME280;66387;53.440;10.390;2023-12-04T00:57:15;101200.19;;;-2.05;100.00
77325;BME280;66387;53.440;10.390;2023-12-04T00:59:41;101199.09;;;-2.10;100.00
77325;BME280;66387;53.440;10.390;2023-12-04T01:02:06;101198.34;;;-2.07;100.00
77325;BME280;66387;53.440;10.390;2023-12-04T01:04:32;101198.22;;;-2.10;100.00
77325;BME280;66387;53.440;10.390;2023-12-04T01:06:57;101198.22;;;-2.10;100.00
77325;BME280;66387;53.440;10.390;2023-12-04T01:09:23;101195.53;;;-2.13;100.00
77325;BME280;66387;53.440;10.390;2023-12-04T01:11:53;101191.09;;;-2.17;100.00
77325;BME280;66387;53.440;10.390;2023-12-04T01:14:19;101185.13;;;-2.18;100.00
77325;BME280;66387;53.440;10.390;2023-12-04T01:16:44;101185.00;;;-2.21;100.00
77325;BME280;66387;53.440;10.390;2023-12-04T01:19:10;101181.56;;;-2.21;100.00
77325;BME280;66387;53.440;10.390;2023-12-04T01:21:35;101183.25;;;-2.22;100.00
77325;BME280;66387;53.440;10.390;2023-12-04T01:24:01;101183.19;;;-2.23;100.00
77325;BME280;66387;53.440;10.390;2023-12-04T01:26:26;101175.34;;;-2.28;100.00
77325;BME280;66387;53.440;10.390;2023-12-04T01:28:51;101178.81;;;-2.26;100.00
77325;BME280;66387;53.440;10.390;2023-12-04T01:31:16;101165.31;;;-2.25;100.00
77325;BME280;66387;53.440;10.390;2023-12-04T01:33:42;101173.03;;;-2.23;100.00
77325;BME280;66387;53.440;10.390;2023-12-04T01:36:07;101172.06;;;-2.25;100.00
77325;BME280;66387;53.440;10.390;2023-12-04T01:38:33;101170.16;;;-2.29;100.00
77325;BME280;66387;53.440;10.390;2023-12-04T01:40:58;101164.16;;;-2.31;100.00
77325;BME280;66387;53.440;10.390;2023-12-04T01:43:23;101161.53;;;-2.33;100.00
77325;BME280;66387;53.440;10.390;2023-12-04T01:45:49;101155.28;;;-2.39;100.00
77325;BME280;66387;53.440;10.390;2023-12-04T01:48:14;101162.13;;;-2.38;100.00
77325;BME280;66387;53.440;10.390;2023-12-04T01:50:40;101159.66;;;-2.37;100.00
77325;BME280;66387;53.440;10.390;2023-12-04T01:53:05;101159.50;;;-2.40;100.00
77325;BME280;66387;53.440;10.390;2023-12-04T01:55:32;101165.47;;;-2.39;100.00
77325;BME280;66387;53.440;10.390;2023-12-04T01:58:00;101161.19;;;-2.40;100.00
77325;BME280;66387;53.440;10.390;2023-12-04T02:00:25;101152.09;;;-2.35;100.00
77325;BME280;66387;53.440;10.390;2023-12-04T02:02:51;101140.03;;;-2.39;100.00
77325;BME280;66387;53.440;10.390;2023-12-04T02:05:16;101143.31;;;-2.42;100.00
77325;BME280;66387;53.440;10.390;2023-12-04T02:07:42;101143.22;;;-2.43;100.00
77325;BME280;66387;53.440;10.390;2023-12-04T02:10:08;101142.94;;;-2.50;100.00
77325;BME280;66387;53.440;10.390;2023-12-04T02:12:34;101136.13;;;-2.51;100.00
77325;BME280;66387;53.440;10.390;2023-12-04T02:14:59;101129.44;;;-2.49;100.00
77325;BME280;66387;53.440;10.390;2023-12-04T02:17:25;101129.59;;;-2.45;100.00
77325;BME280;66387;53.440;10.390;2023-12-04T02:19:51;101124.66;;;-2.42;100.00
77325;BME280;66387;53.440;10.390;2023-12-04T02:22:17;101125.94;;;-2.33;100.00
77325;BME280;66387;53.440;10.390;2023-12-04T02:24:44;101120.78;;;-2.34;100.00
77325;BME280;66387;53.440;10.390;2023-12-04T02:27:12;101121.59;;;-2.35;100.00
77325;BME280;66387;53.440;10.390;2023-12-04T02:29:44;101118.13;;;-2.37;100.00
77325;BME280;66387;53.440;10.390;2023-12-04T02:32:15;101114.56;;;-2.41;100.00
77325;BME280;66387;53.440;10.390;2023-12-04T02:34:42;101110.34;;;-2.40;100.00
77325;BME280;66387;53.440;10.390;2023-12-04T02:37:09;101116.38;;;-2.38;100.00
77325;BME280;66387;53.440;10.390;2023-12-04T02:39:36;101106.06;;;-2.41;100.00
77325;BME280;66387;53.440;10.390;2023-12-04T02:42:02;101087.13;;;-2.48;100.00
77325;BME280;66387;53.440;10.390;2023-12-04T02:44:27;101100.84;;;-2.44;100.00
77325;BME280;66387;53.440;10.390;2023-12-04T02:46:53;101092.38;;;-2.43;100.00
77325;BME280;66387;53.440;10.390;2023-12-04T02:49:18;101090.66;;;-2.44;100.00
77325;BME280;66387;53.440;10.390;2023-12-04T02:51:43;101087.31;;;-2.43;100.00
77325;BME280;66387;53.440;10.390;2023-12-04T02:54:08;101089.19;;;-2.39;100.00
77325;BME280;66387;53.440;10.390;2023-12-04T02:56:34;101083.84;;;-2.45;100.00
77325;BME280;66387;53.440;10.390;2023-12-04T02:58:59;101080.78;;;-2.38;100.00
77325;BME280;66387;53.440;10.390;2023-12-04T03:01:24;101073.94;;;-2.39;100.00
77325;BME280;66387;53.440;10.390;2023-12-04T03:03:49;101067.97;;;-2.40;100.00
77325;BME280;66387;53.440;10.390;2023-12-04T03:06:15;101064.66;;;-2.39;100.00
77325;BME280;66387;53.440;10.390;2023-12-04T03:08:43;101060.44;;;-2.38;100.00
77325;BME280;66387;53.440;10.390;2023-12-04T03:11:08;101064.59;;;-2.40;100.00
77325;BME280;66387;53.440;10.390;2023-12-04T03:13:34;101066.44;;;-2.36;100.00
77325;BME280;66387;53.440;10.390;2023-12-04T03:15:59;101066.41;;;-2.38;100.00
77325;BME280;66387;53.440;10.390;2023-12-04T03:18:25;101056.34;;;-2.35;100.00
77325;BME280;66387;53.440;10.390;2023-12-04T03:20:51;101056.97;;;-2.40;100.00
77325;BME280;66387;53.440;10.390;2023-12-04T03:23:16;101047.28;;;-2.48;100.00
77325;BME280;66387;53.440;10.390;2023-12-04T03:25:41;101053.91;;;-2.51;100.00
77325;BME280;66387;53.440;10.390;2023-12-04T03:28:07;101049.94;;;-2.64;100.00
77325;BME280;66387;53.440;10.390;2023-12-04T03:30:32;101041.72;;;-2.58;100.00
77325;BME280;66387;53.440;10.390;2023-12-04T03:32:57;101041.16;;;-2.70;100.00
77325;BME280;66387;53.440;10.390;2023-12-04T03:35:22;101032.38;;;-2.77;100.00
77325;BME280;66387;53.440;10.390;2023-12-04T03:37:48;101031.31;;;-2.82;100.00
77325;BME280;66387;53.440;10.390;2023-12-04T03:40:16;101027.00;;;-2.83;100.00
77325;BME280;66387;53.440;10.390;2023-12-04T03:42:41;101021.19;;;-2.80;100.00
77325;BME280;66387;53.440;10.390;2023-12-04T03:45:07;101015.94;;;-2.85;100.00
77325;BME280;66387;53.440;10.390;2023-12-04T03:47:32;101016.06;;;-2.82;100.00
77325;BME280;66387;53.440;10.390;2023-12-04T03:49:57;101016.06;;;-2.82;100.00
77325;BME280;66387;53.440;10.390;2023-12-04T03:52:23;101011.53;;;-2.87;100.00
77325;BME280;66387;53.440;10.390;2023-12-04T03:54:48;101008.38;;;-3.01;100.00
77325;BME280;66387;53.440;10.390;2023-12-04T03:57:13;101005.97;;;-2.98;100.00
77325;BME280;66387;53.440;10.390;2023-12-04T03:59:38;101000.63;;;-3.04;100.00
77325;BME280;66387;53.440;10.390;2023-12-04T04:02:04;100995.44;;;-3.06;100.00
77325;BME280;66387;53.440;10.390;2023-12-04T04:04:29;100995.44;;;-3.06;100.00
77325;BME280;66387;53.440;10.390;2023-12-04T04:06:54;100985.38;;;-3.04;100.00
77325;BME280;66387;53.440;10.390;2023-12-04T04:09:20;100988.44;;;-3.11;100.00
77325;BME280;66387;53.440;10.390;2023-12-04T04:11:45;100987.59;;;-3.28;100.00
77325;BME280;66387;53.440;10.390;2023-12-04T04:14:10;100982.63;;;-3.26;100.00
77325;BME280;66387;53.440;10.390;2023-12-04T04:16:36;100982.63;;;-3.26;100.00
77325;BME280;66387;53.440;10.390;2023-12-04T04:19:01;100978.50;;;-3.24;100.00
77325;BME280;66387;53.440;10.390;2023-12-04T04:21:26;100979.66;;;-3.18;100.00
77325;BME280;66387;53.440;10.390;2023-12-04T04:23:52;100975.28;;;-3.20;100.00
77325;BME280;66387;53.440;10.390;2023-12-04T04:26:18;100964.19;;;-3.22;100.00
77325;BME280;66387;53.440;10.390;2023-12-04T04:28:43;100965.63;;;-3.27;100.00
77325;BME280;66387;53.440;10.390;2023-12-04T04:31:09;100968.19;;;-3.27;100.00
77325;BME280;66387;53.440;10.390;2023-12-04T04:33:34;100962.97;;;-3.30;100.00
77325;BME280;66387;53.440;10.390;2023-12-04T04:35:59;100961.94;;;-3.34;100.00
77325;BME280;66387;53.440;10.390;2023-12-04T04:38:24;100961.38;;;-3.28;100.00
77325;BME280;66387;53.440;10.390;2023-12-04T04:40:50;100960.88;;;-3.21;100.00
77325;BME280;66387;53.440;10.390;2023-12-04T04:43:16;100958.53;;;-3.17;100.00
77325;BME280;66387;53.440;10.390;2023-12-04T04:45:41;100957.31;;;-3.07;100.00
77325;BME280;66387;53.440;10.390;2023-12-04T04:48:06;100951.72;;;-3.00;100.00
77325;BME280;66387;53.440;10.390;2023-12-04T04:50:31;100957.72;;;-2.98;100.00
77325;BME280;66387;53.440;10.390;2023-12-04T04:52:57;100944.66;;;-3.06;100.00
77325;BME280;66387;53.440;10.390;2023-12-04T04:55:22;100947.16;;;-3.07;100.00
77325;BME280;66387;53.440;10.390;2023-12-04T04:57:47;100950.47;;;-3.08;100.00
77325;BME280;66387;53.440;10.390;2023-12-04T05:00:13;100945.91;;;-3.15;100.00
77325;BME280;66387;53.440;10.390;2023-12-04T05:02:38;100935.25;;;-3.08;100.00
77325;BME280;66387;53.440;10.390;2023-12-04T05:05:03;100944.16;;;-3.16;100.00
77325;BME280;66387;53.440;10.390;2023-12-04T05:07:29;100928.56;;;-3.24;100.00
77325;BME280;66387;53.440;10.390;2023-12-04T05:09:55;100930.75;;;-3.31;100.00
77325;BME280;66387;53.440;10.390;2023-12-04T05:12:20;100931.06;;;-3.25;100.00
77325;BME280;66387;53.440;10.390;2023-12-04T05:14:45;100936.13;;;-3.25;100.00
77325;BME280;66387;53.440;10.390;2023-12-04T05:17:10;100922.44;;;-3.29;100.00
77325;BME280;66387;53.440;10.390;2023-12-04T05:19:36;100921.69;;;-3.26;100.00
77325;BME280;66387;53.440;10.390;2023-12-04T05:22:01;100920.47;;;-3.34;100.00
77325;BME280;66387;53.440;10.390;2023-12-04T05:24:26;100920.09;;;-3.42;100.00
77325;BME280;66387;53.440;10.390;2023-12-04T05:26:52;100913.34;;;-3.41;100.00
77325;BME280;66387;53.440;10.390;2023-12-04T05:29:17;100914.00;;;-3.46;100.00
77325;BME280;66387;53.440;10.390;2023-12-04T05:31:42;100907.50;;;-3.40;100.00
77325;BME280;66387;53.440;10.390;2023-12-04T05:34:07;100909.44;;;-3.35;100.00
77325;BME280;66387;53.440;10.390;2023-12-04T05:36:33;100913.72;;;-3.34;100.00
77325;BME280;66387;53.440;10.390;2023-12-04T05:38:58;100911.84;;;-3.38;100.00
77325;BME280;66387;53.440;10.390;2023-12-04T05:41:23;100905.97;;;-3.37;100.00
77325;BME280;66387;53.440;10.390;2023-12-04T05:43:48;100904.81;;;-3.43;100.00
77325;BME280;66387;53.440;10.390;2023-12-04T05:46:14;100904.53;;;-3.32;100.00
77325;BME280;66387;53.440;10.390;2023-12-04T05:48:39;100910.63;;;-3.28;100.00
77325;BME280;66387;53.440;10.390;2023-12-04T05:51:04;100906.84;;;-3.36;100.00
77325;BME280;66387;53.440;10.390;2023-12-04T05:53:29;100894.50;;;-3.29;100.00
77325;BME280;66387;53.440;10.390;2023-12-04T05:55:55;100903.84;;;-3.28;100.00
77325;BME280;66387;53.440;10.390;2023-12-04T05:58:20;100887.13;;;-3.24;100.00
77325;BME280;66387;53.440;10.390;2023-12-04T06:00:45;100885.06;;;-3.31;100.00
77325;BME280;66387;53.440;10.390;2023-12-04T06:03:10;100882.03;;;-3.42;100.00
77325;BME280;66387;53.440;10.390;2023-12-04T06:05:36;100877.97;;;-3.38;100.00
77325;BME280;66387;53.440;10.390;2023-12-04T06:08:01;100879.06;;;-3.33;100.00
77325;BME280;66387;53.440;10.390;2023-12-04T06:10:27;100876.28;;;-3.20;100.00
77325;BME280;66387;53.440;10.390;2023-12-04T06:12:52;100871.50;;;-3.14;100.00
77325;BME280;66387;53.440;10.390;2023-12-04T06:15:17;100873.66;;;-3.04;100.00
77325;BME280;66387;53.440;10.390;2023-12-04T06:17:42;100869.66;;;-2.99;100.00
77325;BME280;66387;53.440;10.390;2023-12-04T06:20:08;100860.41;;;-2.97;100.00
77325;BME280;66387;53.440;10.390;2023-12-04T06:22:34;100861.88;;;-3.02;100.00
77325;BME280;66387;53.440;10.390;2023-12-04T06:25:00;100868.69;;;-3.01;100.00
77325;BME280;66387;53.440;10.390;2023-12-04T06:27:25;100865.41;;;-2.99;100.00
77325;BME280;66387;53.440;10.390;2023-12-04T06:29:51;100858.97;;;-2.92;100.00
77325;BME280;66387;53.440;10.390;2023-12-04T06:32:16;100861.78;;;-2.86;100.00
77325;BME280;66387;53.440;10.390;2023-12-04T06:34:42;100848.84;;;-2.90;100.00
77325;BME280;66387;53.440;10.390;2023-12-04T06:37:11;100851.59;;;-2.86;100.00
77325;BME280;66387;53.440;10.390;2023-12-04T06:39:38;100848.16;;;-2.88;100.00
77325;BME280;66387;53.440;10.390;2023-12-04T06:42:05;100857.56;;;-2.85;100.00
77325;BME280;66387;53.440;10.390;2023-12-04T06:44:31;100852.69;;;-2.81;100.00
77325;BME280;66387;53.440;10.390;2023-12-04T06:46:59;100846.25;;;-2.73;100.00
77325;BME280;66387;53.440;10.390;2023-12-04T06:49:27;100849.06;;;-2.67;100.00
77325;BME280;66387;53.440;10.390;2023-12-04T06:51:54;100851.66;;;-2.65;100.00
77325;BME280;66387;53.440;10.390;2023-12-04T06:54:20;100846.59;;;-2.65;100.00
77325;BME280;66387;53.440;10.390;2023-12-04T06:56:45;100845.44;;;-2.72;100.00
77325;BME280;66387;53.440;10.390;2023-12-04T06:59:10;100846.53;;;-2.67;100.00
77325;BME280;66387;53.440;10.390;2023-12-04T07:01:35;100844.66;;;-2.71;100.00
77325;BME280;66387;53.440;10.390;2023-12-04T07:04:01;100847.13;;;-2.72;100.00
77325;BME280;66387;53.440;10.390;2023-12-04T07:06:26;100844.66;;;-2.71;100.00
77325;BME280;66387;53.440;10.390;2023-12-04T07:08:51;100832.50;;;-2.78;100.00
77325;BME280;66387;53.440;10.390;2023-12-04T07:11:16;100838.78;;;-2.70;100.00
77325;BME280;66387;53.440;10.390;2023-12-04T07:13:42;100839.44;;;-2.74;100.00
77325;BME280;66387;53.440;10.390;2023-12-04T07:16:07;100838.28;;;-2.80;100.00
77325;BME280;66387;53.440;10.390;2023-12-04T07:18:33;100840.25;;;-2.75;100.00
77325;BME280;66387;53.440;10.390;2023-12-04T07:20:58;100833.22;;;-2.80;100.00
77325;BME280;66387;53.440;10.390;2023-12-04T07:23:23;100831.97;;;-2.71;100.00
77325;BME280;66387;53.440;10.390;2023-12-04T07:25:48;100823.78;;;-2.64;100.00
77325;BME280;66387;53.440;10.390;2023-12-04T07:28:14;100828.34;;;-2.76;100.00
77325;BME280;66387;53.440;10.390;2023-12-04T07:30:39;100821.03;;;-2.68;100.00
77325;BME280;66387;53.440;10.390;2023-12-04T07:33:04;100811.28;;;-2.59;100.00
77325;BME280;66387;53.440;10.390;2023-12-04T07:35:29;100815.75;;;-2.54;100.00
77325;BME280;66387;53.440;10.390;2023-12-04T07:37:55;100816.06;;;-2.46;100.00
77325;BME280;66387;53.440;10.390;2023-12-04T07:40:20;100816.63;;;-2.53;100.00
77325;BME280;66387;53.440;10.390;2023-12-04T07:42:47;100812.53;;;-2.50;100.00
77325;BME280;66387;53.440;10.390;2023-12-04T07:45:13;100821.94;;;-2.47;100.00
77325;BME280;66387;53.440;10.390;2023-12-04T07:47:39;100815.53;;;-2.39;100.00
77325;BME280;66387;53.440;10.390;2023-12-04T07:50:05;100822.16;;;-2.42;100.00
77325;BME280;66387;53.440;10.390;2023-12-04T07:52:30;100828.03;;;-2.43;100.00
77325;BME280;66387;53.440;10.390;2023-12-04T07:54:55;100823.81;;;-2.43;100.00
77325;BME280;66387;53.440;10.390;2023-12-04T07:57:22;100830.41;;;-2.48;100.00
77325;BME280;66387;53.440;10.390;2023-12-04T07:59:47;100825.31;;;-2.48;100.00
77325;BME280;66387;53.440;10.390;2023-12-04T08:02:12;100820.72;;;-2.57;100.00
77325;BME280;66387;53.440;10.390;2023-12-04T08:04:38;100816.63;;;-2.53;100.00
77325;BME280;66387;53.440;10.390;2023-12-04T08:07:03;100819.91;;;-2.56;100.00
77325;BME280;66387;53.440;10.390;2023-12-04T08:09:29;100812.75;;;-2.45;100.00
77325;BME280;66387;53.440;10.390;2023-12-04T08:11:54;100811.75;;;-2.49;100.00
77325;BME280;66387;53.440;10.390;2023-12-04T08:14:19;100809.19;;;-2.49;100.00
77325;BME280;66387;53.440;10.390;2023-12-04T08:16:44;100815.16;;;-2.48;100.00
77325;BME280;66387;53.440;10.390;2023-12-04T08:19:10;100806.09;;;-2.41;100.00
77325;BME280;66387;53.440;10.390;2023-12-04T08:21:35;100802.13;;;-2.35;100.00
77325;BME280;66387;53.440;10.390;2023-12-04T08:24:00;100803.22;;;-2.30;100.00
77325;BME280;66387;53.440;10.390;2023-12-04T08:26:25;100799.53;;;-2.36;100.00
77325;BME280;66387;53.440;10.390;2023-12-04T08:28:51;100809.69;;;-2.36;100.00
77325;BME280;66387;53.440;10.390;2023-12-04T08:31:17;100804.47;;;-2.39;100.00
77325;BME280;66387;53.440;10.390;2023-12-04T08:33:42;100806.16;;;-2.40;100.00
77325;BME280;66387;53.440;10.390;2023-12-04T08:36:09;100810.00;;;-2.50;100.00
77325;BME280;66387;53.440;10.390;2023-12-04T08:38:34;100802.00;;;-2.59;100.00
77325;BME280;66387;53.440;10.390;2023-12-04T08:41:00;100805.78;;;-2.49;100.00
77325;BME280;66387;53.440;10.390;2023-12-04T08:43:25;100805.72;;;-2.51;100.00
77325;BME280;66387;53.440;10.390;2023-12-04T08:45:50;100810.78;;;-2.51;100.00
77325;BME280;66387;53.440;10.390;2023-12-04T08:48:16;100806.69;;;-2.47;100.00
77325;BME280;66387;53.440;10.390;2023-12-04T08:50:41;100817.88;;;-2.43;100.00
77325;BME280;66387;53.440;10.390;2023-12-04T08:53:06;100813.59;;;-2.44;100.00
77325;BME280;66387;53.440;10.390;2023-12-04T08:55:31;100820.38;;;-2.45;100.00
77325;BME280;66387;53.440;10.390;2023-12-04T08:57:57;100819.84;;;-2.36;100.00
77325;BME280;66387;53.440;10.390;2023-12-04T09:00:22;100815.91;;;-2.30;100.00
77325;BME280;66387;53.440;10.390;2023-12-04T09:02:48;100816.63;;;-2.32;100.00
77325;BME280;66387;53.440;10.390;2023-12-04T09:05:14;100818.16;;;-2.37;100.00
77325;BME280;66387;53.440;10.390;2023-12-04T09:07:39;100809.44;;;-2.42;100.00
77325;BME280;66387;53.440;10.390;2023-12-04T09:10:05;100811.31;;;-2.38;100.00
77325;BME280;66387;53.440;10.390;2023-12-04T09:12:30;100819.25;;;-2.31;100.00
77325;BME280;66387;53.440;10.390;2023-12-04T09:14:55;100816.41;;;-2.38;100.00
77325;BME280;66387;53.440;10.390;2023-12-04T09:17:21;100815.59;;;-2.37;100.00
77325;BME280;66387;53.440;10.390;2023-12-04T09:19:46;100815.84;;;-2.31;100.00
77325;BME280;66387;53.440;10.390;2023-12-04T09:22:11;100819.47;;;-2.26;100.00
77325;BME280;66387;53.440;10.390;2023-12-04T09:24:37;100813.69;;;-2.22;100.00
77325;BME280;66387;53.440;10.390;2023-12-04T09:27:02;100813.81;;;-2.19;100.00
77325;BME280;66387;53.440;10.390;2023-12-04T09:29:27;100808.59;;;-2.22;100.00
77325;BME280;66387;53.440;10.390;2023-12-04T09:31:53;100813.19;;;-2.14;100.00
77325;BME280;66387;53.440;10.390;2023-12-04T09:34:19;100806.66;;;-2.07;100.00
77325;BME280;66387;53.440;10.390;2023-12-04T09:36:46;100807.50;;;-2.08;100.00
77325;BME280;66387;53.440;10.390;2023-12-04T09:39:12;100803.25;;;-2.08;100.00
77325;BME280;66387;53.440;10.390;2023-12-04T09:41:38;100799.28;;;-2.01;100.00
77325;BME280;66387;53.440;10.390;2023-12-04T09:44:05;100801.28;;;-1.94;100.00
77325;BME280;66387;53.440;10.390;2023-12-04T09:46:31;100801.88;;;-2.00;100.00
77325;BME280;66387;53.440;10.390;2023-12-04T09:48:58;100796.88;;;-1.98;100.00
77325;BME280;66387;53.440;10.390;2023-12-04T09:51:24;100801.16;;;-1.97;100.00
77325;BME280;66387;53.440;10.390;2023-12-04T09:53:52;100797.19;;;-1.90;100.00
77325;BME280;66387;53.440;10.390;2023-12-04T09:56:18;100797.91;;;-1.93;100.00
77325;BME280;66387;53.440;10.390;2023-12-04T09:58:44;100795.06;;;-1.80;100.00
77325;BME280;66387;53.440;10.390;2023-12-04T10:01:11;100788.09;;;-1.84;100.00
77325;BME280;66387;53.440;10.390;2023-12-04T10:03:36;100784.91;;;-1.78;100.00
77325;BME280;66387;53.440;10.390;2023-12-04T10:06:02;100788.44;;;-1.75;100.00
77325;BME280;66387;53.440;10.390;2023-12-04T10:08:29;100783.50;;;-1.72;100.00
77325;BME280;66387;53.440;10.390;2023-12-04T10:10:54;100778.53;;;-1.69;100.00
77325;BME280;66387;53.440;10.390;2023-12-04T10:13:20;100773.06;;;-1.56;100.00
77325;BME280;66387;53.440;10.390;2023-12-04T10:15:49;100759.91;;;-1.68;100.00
77325;BME280;66387;53.440;10.390;2023-12-04T10:18:28;100763.25;;;-1.69;100.00
77325;BME280;66387;53.440;10.390;2023-12-04T10:20:55;100762.69;;;-1.62;100.00
77325;BME280;66387;53.440;10.390;2023-12-04T10:23:21;100760.47;;;-1.53;100.00
77325;BME280;66387;53.440;10.390;2023-12-04T10:25:49;100751.72;;;-1.37;100.00
77325;BME280;66387;53.440;10.390;2023-12-04T10:28:17;100746.44;;;-1.41;100.00
77325;BME280;66387;53.440;10.390;2023-12-04T10:30:43;100745.66;;;-1.40;100.00
77325;BME280;66387;53.440;10.390;2023-12-04T10:33:09;100744.94;;;-1.36;100.00
77325;BME280;66387;53.440;10.390;2023-12-04T10:35:36;100733.69;;;-1.43;100.00
77325;BME280;66387;53.440;10.390;2023-12-04T10:38:02;100736.63;;;-1.32;100.00
77325;BME280;66387;53.440;10.390;2023-12-04T10:40:31;100727.22;;;-1.33;100.00
77325;BME280;66387;53.440;10.390;2023-12-04T10:43:20;100724.34;;;-1.20;100.00
77325;BME280;66387;53.440;10.390;2023-12-04T10:45:47;100725.03;;;-1.24;100.00
77325;BME280;66387;53.440;10.390;2023-12-04T10:48:15;100717.25;;;-1.27;100.00
77325;BME280;66387;53.440;10.390;2023-12-04T10:50:42;100718.75;;;-1.10;100.00
77325;BME280;66387;53.440;10.390;2023-12-04T10:53:09;100710.50;;;-1.03;100.00
77325;BME280;66387;53.440;10.390;2023-12-04T10:55:36;100713.94;;;-1.01;100.00
77325;BME280;66387;53.440;10.390;2023-12-04T10:58:04;100711.09;;;-1.10;100.00
77325;BME280;66387;53.440;10.390;2023-12-04T11:00:30;100712.50;;;-1.18;100.00
77325;BME280;66387;53.440;10.390;2023-12-04T11:03:03;100704.97;;;-1.15;100.00
77325;BME280;66387;53.440;10.390;2023-12-04T11:05:31;100700.56;;;-1.19;100.00
77325;BME280;66387;53.440;10.390;2023-12-04T11:08:01;100697.75;;;-1.27;100.00
77325;BME280;66387;53.440;10.390;2023-12-04T11:10:31;100700.38;;;-1.25;100.00
77325;BME280;66387;53.440;10.390;2023-12-04T11:13:02;100695.31;;;-1.24;100.00
77325;BME280;66387;53.440;10.390;2023-12-04T11:15:31;100699.06;;;-1.14;100.00
77325;BME280;66387;53.440;10.390;2023-12-04T11:18:00;100699.38;;;-1.05;100.00
77325;BME280;66387;53.440;10.390;2023-12-04T11:20:28;100686.84;;;-1.24;100.00
77325;BME280;66387;53.440;10.390;2023-12-04T11:22:55;100685.63;;;-1.10;100.00
77325;BME280;66387;53.440;10.390;2023-12-04T11:25:21;100678.50;;;-1.20;100.00
77325;BME280;66387;53.440;10.390;2023-12-04T11:27:48;100682.25;;;-1.09;100.00
77325;BME280;66387;53.440;10.390;2023-12-04T11:30:14;100678.78;;;-1.11;100.00
77325;BME280;66387;53.440;10.390;2023-12-04T11:32:44;100681.66;;;-1.02;100.00
77325;BME280;66387;53.440;10.390;2023-12-04T11:35:17;100682.31;;;-1.08;100.00
77325;BME280;66387;53.440;10.390;2023-12-04T11:37:46;100672.47;;;-0.97;100.00
77325;BME280;66387;53.440;10.390;2023-12-04T11:40:14;100664.44;;;-0.84;100.00
77325;BME280;66387;53.440;10.390;2023-12-04T11:42:40;100666.78;;;-0.90;100.00
77325;BME280;66387;53.440;10.390;2023-12-04T11:45:06;100658.31;;;-1.14;100.00
77325;BME280;66387;53.440;10.390;2023-12-04T11:47:54;100661.84;;;-1.11;100.00
77325;BME280;66387;53.440;10.390;2023-12-04T11:50:20;100661.38;;;-0.99;100.00
77325;BME280;66387;53.440;10.390;2023-12-04T11:52:45;100650.72;;;-1.13;100.00
77325;BME280;66387;53.440;10.390;2023-12-04T11:55:11;100649.88;;;-0.88;100.00
77325;BME280;66387;53.440;10.390;2023-12-04T11:57:38;100650.97;;;-0.80;100.00
77325;BME280;66387;53.440;10.390;2023-12-04T12:00:40;100640.50;;;-0.89;100.00
77325;BME280;66387;53.440;10.390;2023-12-04T12:03:05;100632.44;;;-1.01;100.00
77325;BME280;66387;53.440;10.390;2023-12-04T12:05:32;100628.03;;;-1.05;100.00
77325;BME280;66387;53.440;10.390;2023-12-04T12:08:05;100633.34;;;-0.74;100.00
77325;BME280;66387;53.440;10.390;2023-12-04T12:10:31;100620.97;;;-0.88;100.00
77325;BME280;66387;53.440;10.390;2023-12-04T12:12:57;100620.28;;;-0.83;100.00
77325;BME280;66387;53.440;10.390;2023-12-04T12:15:23;100617.03;;;-0.79;100.00
77325;BME280;66387;53.440;10.390;2023-12-04T12:17:49;100604.38;;;-0.76;100.00
77325;BME280;66387;53.440;10.390;2023-12-04T12:20:16;100610.34;;;-0.75;100.00
77325;BME280;66387;53.440;10.390;2023-12-04T12:22:41;100600.97;;;-0.76;100.00
77325;BME280;66387;53.440;10.390;2023-12-04T12:25:09;100605.00;;;-0.83;100.00